Time,TemperatureF,DewpointF,PressureIn,WindDirection,WindDirectionDegrees,WindSpeedMPH,WindSpeedGustMPH,Humidity,HourlyPrecipIn,Conditions,Clouds,dailyrainin,SolarRadiationWatts/m^2,SoftwareType,DateUTC
2013-07-15 00:00:00,72.0,35.0,-100.00,West,270,3.0,4.0,25,-99.99,,,0.00,0.000000,,2013-07-15 07:00:00,
2013-07-15 00:43:00,72.0,35.0,-100.00,West,270,3.0,4.0,25,-99.99,,,0.00,0.000000,,2013-07-15 07:43:00,
2013-07-15 00:53:00,72.0,35.0,-100.00,West,270,3.0,4.0,25,-99.99,,,0.00,0.000000,,2013-07-15 07:53:00,
2013-07-15 04:00:00,64.0,37.0,-100.00,West,272,3.0,5.0,36,-99.99,,,0.00,0.000000,,2013-07-15 11:00:00,
2013-07-15 04:42:00,64.0,37.0,-100.00,West,272,3.0,5.0,36,-99.99,,,0.00,0.000000,,2013-07-15 11:42:00,
2013-07-15 04:52:00,64.0,37.0,-100.00,West,272,3.0,5.0,36,-99.99,,,0.00,0.000000,,2013-07-15 11:52:00,
2013-07-15 06:43:00,58.0,39.0,-100.00,West,279,0.0,1.0,48,-99.99,,,0.00,10.810000,,2013-07-15 13:43:00,
2013-07-15 06:53:00,58.0,39.0,-100.00,West,279,0.0,1.0,48,-99.99,,,0.00,10.810000,,2013-07-15 13:53:00,
2013-07-15 07:00:00,69.0,42.0,-100.00,WNW,291,4.0,6.0,37,-99.99,,,0.00,174.910004,,2013-07-15 14:00:00,
2013-07-15 07:42:00,69.0,42.0,-100.00,WNW,291,4.0,6.0,37,-99.99,,,0.00,174.910004,,2013-07-15 14:42:00,
2013-07-15 07:59:00,69.0,42.0,-100.00,WNW,291,4.0,6.0,37,-99.99,,,0.00,174.910004,,2013-07-15 14:59:00,
2013-07-15 08:00:00,75.0,44.0,-100.00,WNW,303,4.0,7.0,32,-99.99,,,0.00,364.579987,,2013-07-15 15:00:00,
2013-07-15 08:45:00,75.0,44.0,-100.00,WNW,303,4.0,7.0,32,-99.99,,,0.00,364.579987,,2013-07-15 15:45:00,
2013-07-15 08:53:00,75.0,44.0,-100.00,WNW,303,4.0,7.0,32,-99.99,,,0.00,364.579987,,2013-07-15 15:53:00,
2013-07-15 09:00:00,80.0,37.0,-100.00,West,276,6.0,9.0,21,-99.99,,,0.00,558.900024,,2013-07-15 16:00:00,
2013-07-15 09:44:00,80.0,37.0,-100.00,West,276,6.0,9.0,21,-99.99,,,0.00,558.900024,,2013-07-15 16:44:00,
2013-07-15 09:52:00,80.0,37.0,-100.00,West,276,6.0,9.0,21,-99.99,,,0.00,558.900024,,2013-07-15 16:52:00,
2013-07-15 10:00:00,83.0,36.0,-100.00,WNW,289,5.0,11.0,18,-99.99,,,0.00,737.179993,,2013-07-15 17:00:00,
2013-07-15 10:46:00,83.0,36.0,-100.00,WNW,289,5.0,11.0,18,-99.99,,,0.00,737.179993,,2013-07-15 17:46:00,
2013-07-15 10:58:00,83.0,36.0,-100.00,WNW,289,5.0,11.0,18,-99.99,,,0.00,737.179993,,2013-07-15 17:58:00,
2013-07-15 11:00:00,84.0,35.0,-100.00,WNW,296,3.0,8.0,17,-99.99,,,0.00,729.750000,,2013-07-15 18:00:00,
2013-07-15 11:45:00,84.0,35.0,-100.00,WNW,296,3.0,8.0,17,-99.99,,,0.00,729.750000,,2013-07-15 18:45:00,
2013-07-15 11:58:00,84.0,35.0,-100.00,WNW,296,3.0,8.0,17,-99.99,,,0.00,729.750000,,2013-07-15 18:58:00,
2013-07-15 12:00:00,87.0,37.0,-100.00,WSW,239,4.0,9.0,17,-99.99,,,0.00,966.950012,,2013-07-15 19:00:00,
2013-07-15 12:56:00,87.0,37.0,-100.00,WSW,239,4.0,9.0,17,-99.99,,,0.00,966.950012,,2013-07-15 19:56:00,
2013-07-15 13:00:00,89.0,34.0,-100.00,SSW,206,5.0,10.0,14,-99.99,,,0.00,1006.469971,,2013-07-15 20:00:00,
2013-07-15 13:43:00,89.0,34.0,-100.00,SSW,206,5.0,10.0,14,-99.99,,,0.00,1006.469971,,2013-07-15 20:43:00,
2013-07-15 13:57:00,89.0,34.0,-100.00,SSW,206,5.0,10.0,14,-99.99,,,0.00,1006.469971,,2013-07-15 20:57:00,
2013-07-15 14:00:00,91.0,34.0,-100.00,SSW,194,4.0,11.0,13,-99.99,,,0.00,982.059998,,2013-07-15 21:00:00,
2013-07-15 14:59:00,91.0,34.0,-100.00,SSW,194,4.0,11.0,13,-99.99,,,0.00,982.059998,,2013-07-15 21:59:00,
2013-07-15 15:00:00,92.0,38.0,-100.00,South,180,5.0,11.0,15,-99.99,,,0.00,907.210022,,2013-07-15 22:00:00,
2013-07-15 15:43:00,92.0,38.0,-100.00,South,180,5.0,11.0,15,-99.99,,,0.00,907.210022,,2013-07-15 22:43:00,
2013-07-15 15:54:00,92.0,38.0,-100.00,South,180,5.0,11.0,15,-99.99,,,0.00,907.210022,,2013-07-15 22:54:00,
2013-07-15 16:00:00,94.0,37.0,-100.00,ESE,120,3.0,10.0,13,-99.99,,,0.00,771.929993,,2013-07-15 23:00:00,
2013-07-15 16:54:00,94.0,37.0,-100.00,ESE,120,3.0,10.0,13,-99.99,,,0.00,771.929993,,2013-07-15 23:54:00,
2013-07-15 20:00:00,92.0,39.0,-100.00,SSW,204,3.0,4.0,15,-99.99,,,0.00,84.489998,,2013-07-16 03:00:00,
2013-07-15 20:45:00,92.0,39.0,-100.00,SSW,204,3.0,4.0,15,-99.99,,,0.00,84.489998,,2013-07-16 03:45:00,
2013-07-15 20:57:00,92.0,39.0,-100.00,SSW,204,3.0,4.0,15,-99.99,,,0.00,84.489998,,2013-07-16 03:57:00,
2013-07-15 22:00:00,81.0,44.0,-100.00,WNW,291,7.0,13.0,27,-99.99,,,0.00,0.000000,,2013-07-16 05:00:00,
2013-07-15 22:43:00,81.0,44.0,-100.00,WNW,291,7.0,13.0,27,-99.99,,,0.00,0.000000,,2013-07-16 05:43:00,
2013-07-15 22:52:00,81.0,44.0,-100.00,WNW,291,7.0,13.0,27,-99.99,,,0.00,0.000000,,2013-07-16 05:52:00,
2013-07-15 23:00:00,80.0,43.0,-100.00,WNW,295,7.0,12.0,27,-99.99,,,0.00,0.000000,,2013-07-16 06:00:00,
2013-07-15 23:43:00,80.0,43.0,-100.00,WNW,295,7.0,12.0,27,-99.99,,,0.00,0.000000,,2013-07-16 06:43:00,
2013-07-15 23:52:00,80.0,43.0,-100.00,WNW,295,7.0,12.0,27,-99.99,,,0.00,0.000000,,2013-07-16 06:52:00,